createdAt,value
2022-10-05T00:00:00.513Z,6.11
2022-10-05T00:05:21.263Z,6.13
2022-10-05T00:10:25.118Z,6.13
2022-10-05T00:15:28.339Z,6.13
2022-10-05T00:20:31.730Z,6.09
2022-10-05T00:25:34.986Z,6.09
2022-10-05T00:30:38.387Z,6.09
2022-10-05T00:35:41.611Z,6.07
2022-10-05T00:41:06.744Z,6.06
2022-10-05T00:46:15.631Z,6.08
2022-10-05T00:51:27.052Z,6.05
2022-10-05T00:56:54.906Z,6.06
2022-10-05T01:02:06.301Z,6.08
2022-10-05T01:07:30.257Z,6.08
2022-10-05T01:13:12.948Z,6.14
2022-10-05T01:18:24.635Z,6.15
2022-10-05T01:23:43.007Z,6.11
2022-10-05T01:28:59.446Z,6.05
2022-10-05T01:34:09.161Z,6.00
2022-10-05T01:39:30.481Z,5.99
2022-10-05T01:44:41.810Z,5.98
2022-10-05T01:49:53.230Z,5.97
2022-10-05T01:55:34.354Z,5.93
2022-10-05T02:01:04.620Z,5.86
2022-10-05T02:06:15.953Z,5.79
2022-10-05T02:11:19.443Z,5.73
2022-10-05T02:16:39.788Z,5.67
2022-10-05T02:21:46.636Z,5.61
2022-10-05T02:26:52.011Z,5.56
2022-10-05T02:32:18.513Z,5.56
2022-10-05T02:37:46.946Z,5.54
2022-10-05T02:43:08.970Z,5.57
2022-10-05T02:48:32.840Z,5.61
2022-10-05T02:53:54.928Z,5.66
2022-10-05T02:59:21.745Z,5.70
2022-10-05T03:04:53.701Z,5.73
2022-10-05T03:10:24.960Z,5.78
2022-10-05T03:15:58.673Z,5.78
2022-10-05T03:21:26.848Z,5.86
2022-10-05T03:26:42.854Z,5.91
2022-10-05T03:31:54.599Z,5.97
2022-10-05T03:37:03.639Z,6.03
2022-10-05T03:42:35.856Z,6.13
2022-10-05T03:48:07.252Z,6.22
2022-10-05T03:53:20.823Z,6.32
2022-10-05T03:58:54.309Z,6.37
2022-10-05T04:04:04.530Z,6.41
2022-10-05T04:09:16.450Z,6.43
2022-10-05T04:14:32.851Z,6.40
2022-10-05T04:19:59.538Z,6.38
2022-10-05T04:25:14.207Z,6.37
2022-10-05T04:30:22.948Z,6.38
2022-10-05T04:35:51.361Z,6.41
2022-10-05T04:41:10.407Z,6.46
2022-10-05T04:46:33.079Z,6.50
2022-10-05T04:51:42.407Z,6.57
2022-10-05T04:56:50.184Z,6.64
2022-10-05T05:02:22.140Z,6.71
2022-10-05T05:07:59.552Z,6.77
2022-10-05T05:13:16.260Z,6.82
2022-10-05T05:18:31.850Z,6.87
2022-10-05T05:23:50.240Z,6.97
2022-10-05T05:29:24.471Z,7.03
2022-10-05T05:34:49.829Z,7.11
2022-10-05T05:40:02.669Z,7.17
2022-10-05T05:45:39.868Z,7.17
2022-10-05T05:51:02.075Z,7.20
2022-10-05T05:56:32.979Z,7.22
2022-10-05T06:01:44.329Z,7.29
2022-10-05T06:06:50.309Z,7.42
2022-10-05T06:11:57.315Z,7.63
2022-10-05T06:17:11.965Z,7.91
2022-10-05T06:22:24.183Z,8.26
2022-10-05T06:27:59.749Z,8.67
2022-10-05T06:33:26.369Z,9.04
2022-10-05T06:38:54.902Z,9.31
2022-10-05T06:44:01.736Z,9.61
2022-10-05T06:49:33.382Z,9.93
2022-10-05T06:55:39.865Z,10.32
2022-10-05T07:01:01.016Z,10.81
2022-10-05T07:06:04.406Z,11.20
2022-10-05T07:11:32.814Z,11.49
2022-10-05T07:16:58.041Z,11.75
2022-10-05T07:22:19.997Z,12.08
2022-10-05T07:27:25.071Z,12.33
2022-10-05T07:32:44.548Z,12.59
2022-10-05T07:37:58.199Z,12.77
2022-10-05T07:44:00.894Z,13.06
2022-10-05T07:49:14.818Z,13.34
2022-10-05T07:54:40.725Z,13.48
2022-10-05T07:59:58.714Z,13.66
2022-10-05T08:05:23.709Z,13.93
2022-10-05T08:10:49.595Z,14.23
2022-10-05T08:15:58.287Z,14.47
2022-10-05T08:21:02.089Z,14.63
2022-10-05T08:26:27.127Z,14.76
2022-10-05T08:31:36.040Z,15.00
2022-10-05T08:36:39.355Z,15.38
2022-10-05T08:41:53.001Z,15.67
2022-10-05T08:47:14.978Z,15.89
2022-10-05T08:52:21.303Z,16.26
2022-10-05T08:57:43.098Z,16.76
2022-10-05T09:03:05.112Z,17.31
2022-10-05T09:08:39.491Z,17.55
2022-10-05T09:14:19.858Z,17.76
2022-10-05T09:19:36.719Z,18.14
2022-10-05T09:24:57.502Z,18.43
2022-10-05T09:30:35.541Z,18.58
2022-10-05T09:36:16.642Z,18.58
2022-10-05T09:41:40.718Z,18.73
2022-10-05T09:47:19.755Z,18.82
2022-10-05T09:53:08.775Z,18.98
2022-10-05T09:58:28.455Z,19.25
2022-10-05T10:04:02.027Z,19.44
2022-10-05T10:09:14.455Z,19.58
2022-10-05T10:14:49.744Z,19.70
2022-10-05T10:20:13.390Z,19.87
2022-10-05T10:25:51.006Z,19.96
2022-10-05T10:31:18.821Z,20.07
2022-10-05T10:36:34.172Z,20.16
2022-10-05T10:41:54.457Z,20.25
2022-10-05T10:47:30.731Z,20.20
2022-10-05T10:52:55.571Z,20.22
2022-10-05T10:58:17.166Z,20.19
2022-10-05T11:03:38.889Z,20.39
2022-10-05T11:08:54.314Z,20.53
2022-10-05T11:14:07.176Z,20.70
2022-10-05T11:19:16.947Z,20.86
2022-10-05T11:24:34.905Z,20.88
2022-10-05T11:29:52.219Z,21.03
2022-10-05T11:35:27.376Z,21.18
2022-10-05T11:40:54.667Z,21.23
2022-10-05T11:46:16.309Z,21.19
2022-10-05T11:51:28.550Z,21.24
2022-10-05T11:57:03.271Z,21.34
2022-10-05T12:02:31.634Z,21.50
2022-10-05T12:07:57.096Z,21.86
2022-10-05T12:13:22.722Z,22.31
2022-10-05T12:18:51.739Z,22.55
2022-10-05T12:24:02.423Z,22.53
2022-10-05T12:29:19.207Z,22.29
2022-10-05T12:34:40.357Z,22.24
2022-10-05T12:39:56.193Z,22.30
2022-10-05T12:45:22.325Z,22.38
2022-10-05T12:50:40.675Z,22.46
2022-10-05T12:56:10.243Z,22.56
2022-10-05T13:01:49.633Z,22.60
2022-10-05T13:07:34.912Z,22.72
2022-10-05T13:13:04.351Z,22.88
2022-10-05T13:18:58.892Z,22.84
2022-10-05T13:24:18.243Z,23.03
2022-10-05T13:29:35.537Z,23.05
2022-10-05T13:35:10.644Z,22.84
2022-10-05T13:40:26.480Z,22.56
2022-10-05T13:45:46.162Z,22.31
2022-10-05T13:51:24.269Z,22.01
2022-10-05T13:56:49.967Z,21.75
2022-10-05T14:02:12.648Z,21.63
2022-10-05T14:07:34.734Z,21.43
2022-10-05T14:13:04.873Z,21.33
2022-10-05T14:18:31.767Z,21.16
2022-10-05T14:23:35.845Z,21.04
2022-10-05T14:28:45.023Z,21.04
2022-10-05T14:33:59.668Z,20.94
2022-10-05T14:39:12.246Z,20.79
2022-10-05T14:44:51.917Z,20.62
2022-10-05T14:50:18.900Z,20.39
2022-10-05T14:55:55.734Z,20.11
2022-10-05T15:01:32.506Z,19.82
2022-10-05T15:06:58.429Z,19.68
2022-10-05T15:12:09.047Z,19.49
2022-10-05T15:17:21.206Z,19.38
2022-10-05T15:22:53.822Z,19.30
2022-10-05T15:28:22.015Z,19.26
2022-10-05T15:33:53.984Z,19.16
2022-10-05T15:39:35.117Z,18.96
2022-10-05T15:44:53.434Z,18.64
2022-10-05T15:50:26.607Z,18.22
2022-10-05T15:56:02.391Z,17.78
2022-10-05T16:01:19.341Z,17.38
2022-10-05T16:07:07.148Z,17.03
2022-10-05T16:12:32.953Z,16.65
2022-10-05T16:18:00.664Z,16.28
2022-10-05T16:23:43.431Z,15.91
2022-10-05T16:29:35.043Z,15.50
2022-10-05T16:35:10.211Z,15.12
2022-10-05T16:40:42.993Z,14.79
2022-10-05T16:46:15.423Z,14.49
2022-10-05T16:51:31.822Z,14.19
2022-10-05T16:56:52.764Z,13.95
2022-10-05T17:08:04.094Z,13.55
2022-10-05T17:13:37.890Z,13.37
2022-10-05T17:19:01.054Z,13.18
2022-10-05T17:24:34.116Z,13.07
2022-10-05T17:29:53.331Z,12.96
2022-10-05T17:35:00.857Z,12.94
2022-10-05T17:40:30.152Z,12.85
2022-10-05T17:45:36.026Z,12.78
2022-10-05T17:51:01.612Z,12.76
2022-10-05T17:56:08.919Z,12.76
2022-10-05T18:01:27.161Z,12.70
2022-10-05T18:06:38.527Z,12.61
2022-10-05T18:12:03.861Z,12.52
2022-10-05T18:17:41.027Z,12.40
2022-10-05T18:22:47.213Z,12.28
2022-10-05T18:28:03.432Z,12.14
2022-10-05T18:33:50.024Z,12.02
2022-10-05T18:39:09.634Z,11.89
2022-10-05T18:45:06.278Z,11.76
2022-10-05T18:50:30.262Z,11.60
2022-10-05T18:56:03.640Z,11.45
2022-10-05T19:01:36.610Z,11.31
2022-10-05T19:07:06.518Z,11.21
2022-10-05T19:12:53.129Z,11.03
2022-10-05T19:18:55.147Z,10.89
2022-10-05T19:24:22.298Z,10.77
2022-10-05T19:30:12.346Z,10.67
2022-10-05T19:35:59.502Z,10.60
2022-10-05T19:41:24.257Z,10.51
2022-10-05T19:46:46.792Z,10.46
2022-10-05T19:51:51.420Z,10.42
2022-10-05T19:57:00.213Z,10.36
2022-10-05T20:02:04.784Z,10.28
2022-10-05T20:07:24.699Z,10.23
2022-10-05T20:12:47.848Z,10.21
2022-10-05T20:18:10.703Z,10.18
2022-10-05T20:23:28.952Z,10.16
2022-10-05T20:28:34.219Z,10.14
2022-10-05T20:33:39.243Z,10.10
2022-10-05T20:38:43.161Z,10.06
2022-10-05T20:43:47.826Z,10.00
2022-10-05T20:48:55.405Z,9.96
2022-10-05T20:54:04.589Z,9.88
2022-10-05T20:59:28.059Z,9.81
2022-10-05T21:04:51.843Z,9.81
2022-10-05T21:09:58.145Z,9.81
2022-10-05T21:15:07.606Z,9.77
2022-10-05T21:20:18.977Z,9.75
2022-10-05T21:25:22.927Z,9.68
2022-10-05T21:30:26.355Z,9.64
2022-10-05T21:35:29.706Z,9.59
2022-10-05T21:40:34.509Z,9.53
2022-10-05T21:45:38.208Z,9.45
2022-10-05T21:50:43.458Z,9.41
2022-10-05T21:55:48.894Z,9.34
2022-10-05T22:00:55.356Z,9.28
2022-10-05T22:06:00.084Z,9.18
2022-10-05T22:11:18.017Z,9.08
2022-10-05T22:16:24.663Z,8.96
2022-10-05T22:21:28.407Z,8.88
2022-10-05T22:26:36.244Z,8.80
2022-10-05T22:31:43.734Z,8.66
2022-10-05T22:36:48.966Z,8.55
2022-10-05T22:41:53.207Z,8.52
2022-10-05T22:46:57.887Z,8.42
2022-10-05T22:52:01.711Z,8.44
2022-10-05T22:57:05.620Z,8.40
2022-10-05T23:02:08.935Z,8.34
2022-10-05T23:07:12.585Z,8.36
2022-10-05T23:12:15.743Z,8.38
2022-10-05T23:17:22.146Z,8.37
2022-10-05T23:22:25.883Z,8.45
2022-10-05T23:27:29.222Z,8.51
2022-10-05T23:32:32.669Z,8.58
2022-10-05T23:37:43.362Z,8.66
2022-10-05T23:42:47.307Z,8.68
2022-10-05T23:47:50.669Z,8.72
2022-10-05T23:52:54.200Z,8.77
2022-10-05T23:57:57.448Z,8.78
